M I D A S
Marine Information and Data Acquisition System
Tripno 1607 of the Zeeleeuw from 2008-11-06 06:15:56 to 2008-11-06 11:15:34
Back to CruiseResearch ActivitiesStationsMapUnderway DataData graphs

EquipmentUnitsComment
TimeDGPSUTC
LatitudeDGPSDM.mWGS84
LongitudeDGPSDM.mWGS84
TemperatureSBE03/SBE38deg celciusITS90
ConductivitySBE21S/mITS90
SalinitySBE21 Practical Salinity Units
ChlorophylAChelsea fluorimeterg/lCalibrated in Aceton
Missing or incorrect values are displayed as -999
Sea surface data collected by the RV Zeeleeuw from 2008-11-06 05:35:30 to 2008-11-06 11:19:50
Time Latitude Longitude Temperature Conductivity Salinity ChlorophylA
2008-11-06 05:36:35 51°13.62 2°56.045 -999 0.05219 0.274363 -1.139864
2008-11-06 05:37:35 51°13.62 2°56.046 -999 0.052807 0.277678 -1.139864
2008-11-06 05:38:35 51°13.621 2°56.046 -999 0.052601 0.27657 -1.139864
2008-11-06 05:39:35 51°13.62 2°56.046 -999 0.05291 0.278232 -1.139864
2008-11-06 05:40:35 51°13.622 2°56.048 -999 0.052704 0.277124 -1.139864
2008-11-06 05:41:35 51°13.623 2°56.048 -999 0.053424 0.281003 -1.10504
2008-11-06 05:42:35 51°13.624 2°56.048 -999 0.052807 0.277678 -1.139864
2008-11-06 05:43:35 51°13.625 2°56.048 -999 0.052601 0.27657 -1.10504
2008-11-06 05:44:35 51°13.625 2°56.048 -999 0.052498 0.27602 -1.139864
2008-11-06 05:45:35 51°13.625 2°56.048 -999 0.052704 0.277137 -1.139864
2008-11-06 05:46:35 51°13.622 2°56.048 -999 0.053116 0.279368 -1.139864
2008-11-06 05:47:35 51°13.623 2°56.047 -999 0.052704 0.277165 -1.139864
2008-11-06 05:48:35 51°13.625 2°56.048 -999 0.055277 0.29107 -1.10504
2008-11-06 05:49:35 51°13.625 2°56.049 -999 0.052601 0.276644 -1.139864
2008-11-06 05:50:35 51°13.624 2°56.049 -999 0.051469 0.270561 -1.139864
2008-11-06 05:51:34 51°13.625 2°56.048 -999 0.051881 0.272794 -1.139864
2008-11-06 05:52:35 51°13.624 2°56.047 -999 0.051572 0.271151 -1.10504
2008-11-06 05:53:34 51°13.623 2°56.048 -999 0.051881 0.272835 -1.139864
2008-11-06 05:54:35 51°13.623 2°56.048 -999 0.051778 0.272303 -1.139864
2008-11-06 05:55:35 51°13.623 2°56.048 -999 0.051572 0.271223 -1.139864
2008-11-06 05:56:34 51°13.623 2°56.047 -999 0.05219 0.274584 -1.10504
2008-11-06 05:57:35 51°13.623 2°56.048 -999 0.051263 0.269625 -1.139864
2008-11-06 05:58:34 51°13.622 2°56.047 -999 0.05116 0.269103 -1.139864
2008-11-06 05:59:35 51°13.623 2°56.047 -999 0.051572 0.271345 -1.139864
2008-11-06 06:00:34 51°13.623 2°56.047 -999 0.051366 0.270265 -1.10504
2008-11-06 06:01:35 51°13.623 2°56.047 -999 0.051984 0.273622 -1.139864
2008-11-06 06:02:34 51°13.623 2°56.047 -999 0.051675 0.271986 -1.139864
2008-11-06 06:03:34 51°13.623 2°56.048 -999 0.051675 0.272013 -1.10504
2008-11-06 06:04:34 51°13.624 2°56.048 -999 0.051263 0.269823 -1.139864
2008-11-06 06:05:34 51°13.624 2°56.047 -999 0.05116 0.269301 -1.139864
2008-11-06 06:06:35 51°13.623 2°56.047 -999 0.051366 0.270445 -1.10504
2008-11-06 06:07:34 51°13.623 2°56.048 -999 0.050852 0.26771 -1.10504
2008-11-06 06:08:35 51°13.623 2°56.049 -999 0.051469 0.271077 -1.139864
2008-11-06 06:09:35 51°13.627 2°56.026 -999 0.049102 0.258346 -1.139864
2008-11-06 06:10:35 51°13.654 2°55.931 -999 0.050543 0.266146 -1.139864
2008-11-06 06:11:35 51°13.699 2°55.818 -999 0.049308 0.259535 -1.139864
2008-11-06 06:12:35 51°13.756 2°55.71 -999 0.050028 0.263455 -1.139864
2008-11-06 06:13:35 51°13.833 2°55.638 -999 0.049926 0.262945 -1.139864
2008-11-06 06:14:35 51°13.911 2°55.641 -999 0.052292 0.275761 -1.139864
2008-11-06 06:15:35 51°13.942 2°55.665 -999 0.054762 0.28917 -1.139864
2008-11-06 06:16:34 51°13.979 2°55.568 -999 0.050234 0.264727 -1.139864
2008-11-06 06:17:35 51°14.084 2°55.455 -999 0.05219 0.275284 -1.139864
2008-11-06 06:18:34 51°14.209 2°55.327 -999 0.050955 0.268637 -1.10504
2008-11-06 06:19:35 51°14.323 2°55.133 -999 0.051881 0.273612 -1.139864
2008-11-06 06:20:34 51°14.442 2°54.924 -999 0.051263 0.270298 -1.139864
2008-11-06 06:21:35 51°14.552 2°54.696 -999 0.058673 0.310412 -1.139864
2008-11-06 06:22:35 51°14.649 2°54.445 -999 0.052601 0.277498 -1.139864
2008-11-06 06:23:34 51°14.745 2°54.177 -999 0.048073 0.253078 -1.10504
2008-11-06 06:24:35 51°14.844 2°53.893 -999 0.046838 0.246437 -1.10504
2008-11-06 06:25:34 51°14.94 2°53.614 -999 0.048279 0.254185 -1.139864
2008-11-06 06:26:35 51°15.041 2°53.326 -999 0.052395 0.276344 -1.139864
2008-11-06 06:27:35 51°15.138 2°53.047 -999 0.054454 0.287451 -1.139864
2008-11-06 06:28:34 51°15.229 2°52.773 -999 0.047147 0.248057 -1.139864
2008-11-06 06:29:35 51°15.315 2°52.483 -999 0.049617 0.261335 -1.10504
2008-11-06 06:30:34 51°15.383 2°52.197 -999 0.04653 0.244751 -1.10504
2008-11-06 06:31:35 51°15.444 2°51.9 -999 0.049823 0.262461 -1.139864
2008-11-06 06:32:34 51°15.494 2°51.609 -999 0.049102 0.258609 -1.139864
2008-11-06 06:33:35 51°15.541 2°51.306 -999 0.047867 0.251951 -1.139864
2008-11-06 06:34:34 51°15.589 2°51.013 -999 0.051984 0.274195 -1.139864
2008-11-06 06:35:35 51°15.639 2°50.711 -999 0.052087 0.274788 -1.139864
2008-11-06 06:36:35 51°15.687 2°50.412 -999 0.051572 0.272033 -1.139864
2008-11-06 06:37:35 51°15.729 2°50.111 -999 0.049102 0.258743 -1.139864
2008-11-06 06:38:35 51°15.766 2°49.809 -999 0.050646 0.267161 -1.139864
2008-11-06 06:39:35 51°15.801 2°49.506 -999 0.05044 0.266041 -1.139864
2008-11-06 06:40:35 51°15.84 2°49.203 -999 0.048691 0.25666 -1.139864
2008-11-06 06:41:34 51°15.875 2°48.903 -999 0.049411 0.260646 -1.10504
2008-11-06 06:42:35 51°15.909 2°48.593 -999 0.061657 0.327158 -1.139864
2008-11-06 06:43:34 51°15.936 2°48.294 -999 0.055277 0.292459 -1.10504
2008-11-06 06:44:35 51°15.963 2°47.985 -999 0.050646 0.267421 -1.139864
2008-11-06 06:45:35 51°15.992 2°47.679 -999 0.048794 0.257417 -1.10504
2008-11-06 06:46:34 51°16.026 2°47.378 -999 0.051263 0.270848 -1.139864
2008-11-06 06:47:35 51°16.053 2°47.07 -999 0.054865 0.290481 -1.139864
2008-11-06 06:48:34 51°16.08 2°46.773 -999 0.051366 0.271486 -1.139864
2008-11-06 06:49:35 51°16.115 2°46.468 -999 0.051984 0.274892 -1.139864
2008-11-06 06:50:34 51°16.18 2°46.182 -999 0.065671 0.34965 -1.139864
2008-11-06 06:51:35 51°16.264 2°45.892 -999 0.055791 0.295736 -1.139864
2008-11-06 06:52:35 51°16.369 2°45.622 -999 0.055791 0.295836 -1.139864
2008-11-06 06:53:35 51°16.513 2°45.395 -999 0.061966 0.329514 -1.139864
2008-11-06 06:54:35 51°16.687 2°45.216 -999 0.065156 0.347171 -1.139864
2008-11-06 06:55:35 51°16.864 2°45.042 -999 0.055174 0.292657 -1.139864
2008-11-06 06:56:35 51°17.046 2°44.881 -999 0.057644 0.306271 -1.139864
2008-11-06 06:57:35 51°17.229 2°44.717 -999 0.066082 0.35245 -1.139864
2008-11-06 06:58:35 51°17.41 2°44.549 -999 0.055997 0.297354 -1.139864
2008-11-06 06:59:35 51°17.589 2°44.381 -999 0.059187 0.314807 -1.139864
2008-11-06 07:00:35 51°17.766 2°44.21 -999 0.058467 0.310918 -1.139864
2008-11-06 07:01:35 51°17.943 2°44.041 -999 0.058467 0.311061 -1.10504
2008-11-06 07:02:35 51°18.12 2°43.876 -999 0.069787 0.373222 -1.10504
2008-11-06 07:03:35 51°18.295 2°43.707 -999 0.05538 0.294165 -1.10504
2008-11-06 07:04:34 51°18.469 2°43.536 -999 0.057026 0.303346 -1.139864
2008-11-06 07:05:35 51°18.656 2°43.371 -999 0.05291 0.281033 -1.10504
2008-11-06 07:06:34 51°18.814 2°43.168 -999 0.082034 0.441515 -1.139864
2008-11-06 07:07:35 51°18.931 2°42.899 -999 0.059496 0.317078 -1.10504
2008-11-06 07:08:35 51°19.004 2°42.602 -999 0.058158 0.309801 -1.10504
2008-11-06 07:09:35 51°19.069 2°42.3 -999 0.058467 0.31157 -1.10504
2008-11-06 07:10:35 51°19.134 2°42 -999 0.054042 0.287445 -1.10504
2008-11-06 07:11:35 51°19.209 2°41.704 -999 0.052704 0.280217 -1.139864
2008-11-06 07:12:35 51°19.288 2°41.412 -999 0.055277 0.294379 -1.10504
2008-11-06 07:13:35 51°19.364 2°41.12 -999 0.056409 0.30065 -1.10504
2008-11-06 07:14:35 51°19.437 2°40.824 -999 0.052395 0.278758 -1.10504
2008-11-06 07:15:35 51°19.516 2°40.534 -999 0.05538 0.295117 -1.10504
2008-11-06 07:16:35 51°19.577 2°40.233 -999 0.050852 0.270512 -1.10504
2008-11-06 07:17:35 51°19.632 2°39.926 -999 0.0561 0.299354 -1.10504
2008-11-06 07:18:35 51°19.681 2°39.617 -999 0.05929 0.316892 -1.10504
2008-11-06 07:19:35 51°19.725 2°39.308 -999 0.056306 0.300579 -1.10504
2008-11-06 07:20:35 51°19.772 2°38.997 -999 0.05929 0.317109 -1.10504
2008-11-06 07:21:35 51°19.828 2°38.688 -999 0.050543 0.269275 -1.10504
2008-11-06 07:22:34 51°19.88 2°38.383 -999 0.051366 0.273751 -1.10504
2008-11-06 07:23:35 51°19.93 2°38.069 -999 0.053322 0.284573 -1.10504
2008-11-06 07:24:34 51°19.974 2°37.767 -999 0.054557 0.291412 -1.10504
2008-11-06 07:25:35 51°20.022 2°37.5 -999 0.066803 0.359117 -1.10504
2008-11-06 07:26:35 51°20.057 2°37.326 -999 0.076579 0.413624 -1.139864
2008-11-06 07:27:35 51°20.087 2°37.183 -999 0.062172 0.333633 -1.10504
2008-11-06 07:28:35 51°20.106 2°37.146 -999 0.078329 0.423715 -1.10504
2008-11-06 07:29:35 51°20.122 2°37.146 -999 0.0667 0.358962 -1.10504
2008-11-06 07:30:35 51°20.139 2°37.149 -999 0.059188 0.317497 -1.10504
2008-11-06 07:31:35 51°20.157 2°37.155 -999 0.078741 0.426324 -1.10504
2008-11-06 07:32:35 51°20.174 2°37.159 -999 0.063613 0.341868 -1.10504
2008-11-06 07:33:35 51°20.191 2°37.163 -999 0.072772 0.393254 -1.139864
2008-11-06 07:34:35 51°20.207 2°37.169 -999 0.091914 0.500708 -1.10504
2008-11-06 07:35:35 51°20.222 2°37.176 -999 0.070199 0.379073 -1.10504
2008-11-06 07:36:35 51°20.227 2°37.146 -999 0.128861 0.712542 -1.10504
2008-11-06 07:37:36 51°20.181 2°37.143 -999 0.079255 0.429958 -1.10504
2008-11-06 07:38:35 51°20.102 2°37.178 -999 0.070919 0.383437 -1.10504
2008-11-06 07:39:35 51°19.974 2°37.146 -999 0.052704 0.282474 -1.10504
2008-11-06 07:40:35 51°19.942 2°37.005 -999 0.118775 0.655692 -1.10504
2008-11-06 07:41:35 51°19.956 2°36.96 -999 0.211614 1.200935 -1.10504
2008-11-06 07:42:35 51°19.973 2°36.954 -999 0.279553 1.60976 -1.10504
2008-11-06 07:43:35 51°19.996 2°36.938 -999 0.176206 0.992001 -1.10504
2008-11-06 07:44:35 51°20.017 2°36.927 -999 0.12495 0.692398 -1.10504
2008-11-06 07:45:35 51°20.036 2°36.92 -999 0.15068 0.84217 -1.10504
2008-11-06 07:46:35 51°20.055 2°36.915 -999 0.137403 0.765134 -1.10504
2008-11-06 07:47:35 51°20.071 2°36.908 -999 0.130816 0.727704 -1.10504
2008-11-06 07:48:35 51°20.086 2°36.903 -999 0.166531 0.936553 -1.10504
2008-11-06 07:49:35 51°20.1 2°36.899 -999 0.111776 0.61823 -1.10504
2008-11-06 07:50:35 51°20.114 2°36.898 -999 0.126082 0.700954 -1.10504
2008-11-06 07:51:35 51°20.129 2°36.9 -999 0.119907 0.665585 -1.10504
2008-11-06 07:52:35 51°20.142 2°36.902 -999 0.121863 0.677375 -1.10504
2008-11-06 07:53:35 51°20.156 2°36.907 -999 0.101485 0.559749 -1.10504
2008-11-06 07:54:35 51°20.171 2°36.913 -999 0.131537 0.733958 -1.10504
2008-11-06 07:55:35 51°20.186 2°36.92 -999 0.107866 0.596994 -1.10504
2008-11-06 07:56:35 51°20.2 2°36.927 -999 0.111879 0.619969 -1.10504
2008-11-06 07:57:35 51°20.215 2°36.935 -999 0.114144 0.633336 -1.10504
2008-11-06 07:58:35 51°20.23 2°36.944 -999 0.11332 0.628866 -1.10504
2008-11-06 07:59:35 51°20.245 2°36.953 -999 0.135345 0.757347 -1.10504
2008-11-06 08:00:35 51°20.26 2°36.962 -999 0.109409 0.606611 -1.10504
2008-11-06 08:01:35 51°20.274 2°36.971 -999 0.131846 0.737262 -1.10504
2008-11-06 08:02:35 51°20.289 2°36.981 -999 0.146564 0.823895 -1.10504
2008-11-06 08:03:35 51°20.304 2°36.991 -999 0.1408 0.790659 -1.10504
2008-11-06 08:04:35 51°20.311 2°36.957 -999 0.251039 1.452658 -1.10504
2008-11-06 08:05:35 51°20.249 2°36.957 -999 0.069787 0.381233 -1.10504
2008-11-06 08:06:35 51°20.199 2°36.954 -999 0.069993 0.382625 -1.10504
2008-11-06 08:07:35 51°20.189 2°36.937 -999 0.064848 0.353798 -1.10504
2008-11-06 08:08:35 51°20.196 2°36.926 -999 0.067626 0.36954 -1.10504
2008-11-06 08:09:35 51°20.208 2°36.917 -999 0.075448 0.413862 -1.10504
2008-11-06 08:10:35 51°20.22 2°36.91 -999 0.069582 0.38061 -1.10504
2008-11-06 08:11:35 51°20.233 2°36.906 -999 0.06176 0.336631 -1.10504
2008-11-06 08:12:35 51°20.246 2°36.904 -999 0.065054 0.355207 -1.10504
2008-11-06 08:13:35 51°20.259 2°36.904 -999 0.077815 0.427414 -1.10504
2008-11-06 08:14:35 51°20.273 2°36.905 -999 0.083578 0.460368 -1.10504
2008-11-06 08:15:35 51°20.286 2°36.906 -999 0.068244 0.373591 -1.10504
2008-11-06 08:16:35 51°20.3 2°36.907 -999 0.078638 0.432751 -1.10504
2008-11-06 08:17:35 51°20.313 2°36.91 -999 0.072772 0.399371 -1.10504
2008-11-06 08:18:35 51°20.315 2°36.886 -999 0.073595 0.404238 -1.10504
2008-11-06 08:19:35 51°20.288 2°36.879 -999 0.068553 0.375696 -1.10504
2008-11-06 08:20:35 51°20.255 2°36.898 -999 0.07411 0.407444 -1.10504
2008-11-06 08:21:35 51°20.239 2°36.92 -999 0.062378 0.341175 -1.10504
2008-11-06 08:22:35 51°20.232 2°36.939 -999 0.065362 0.35811 -1.10504
2008-11-06 08:23:35 51°20.232 2°36.957 -999 0.063304 0.346556 -1.070216
2008-11-06 08:24:35 51°20.236 2°36.972 -999 0.060114 0.328649 -1.10504
2008-11-06 08:25:35 51°20.243 2°36.985 -999 0.060423 0.330492 -1.10504
2008-11-06 08:26:35 51°20.253 2°36.998 -999 0.059188 0.323593 -1.10504
2008-11-06 08:27:35 51°20.265 2°37.01 -999 0.05857 0.320233 -1.10504
2008-11-06 08:28:35 51°20.278 2°37.021 -999 0.064333 0.352803 -1.10504
2008-11-06 08:29:35 51°20.284 2°37.047 -999 0.061349 0.335996 -1.10504
2008-11-06 08:30:35 51°20.264 2°37.074 -999 0.053425 0.29153 -1.10504
2008-11-06 08:31:35 51°20.243 2°37.063 -999 0.06598 0.362443 -1.10504
2008-11-06 08:32:35 51°20.234 2°37.045 -999 0.057747 0.315984 -1.10504
2008-11-06 08:33:35 51°20.233 2°37.029 -999 0.060628 0.332298 -1.10504
2008-11-06 08:34:35 51°20.238 2°37.015 -999 0.062275 0.341708 -1.10504
2008-11-06 08:35:35 51°20.246 2°37.002 -999 0.068964 0.379738 -1.10504
2008-11-06 08:36:35 51°20.256 2°36.992 -999 0.075756 0.418568 -1.10504
2008-11-06 08:37:35 51°20.268 2°36.984 -999 0.082652 0.458119 -1.10504
2008-11-06 08:38:35 51°20.28 2°36.978 -999 0.070199 0.386918 -1.10504
2008-11-06 08:39:35 51°20.293 2°36.973 -999 0.065157 0.358602 -1.10504
2008-11-06 08:40:35 51°20.306 2°36.971 -999 0.064024 0.352328 -1.10504
2008-11-06 08:41:35 51°20.319 2°36.97 -999 0.07164 0.395779 -1.10504
2008-11-06 08:42:35 51°20.332 2°36.971 -999 0.067832 0.374285 -1.10504
2008-11-06 08:43:35 51°20.346 2°36.971 -999 0.062378 0.34337 -1.10504
2008-11-06 08:44:35 51°20.359 2°36.973 -999 0.065877 0.363296 -1.10504
2008-11-06 08:45:35 51°20.373 2°36.974 -999 0.069479 0.384017 -1.10504
2008-11-06 08:46:35 51°20.384 2°36.948 -999 0.066597 0.367957 -1.10504
2008-11-06 08:47:35 51°20.367 2°36.911 -999 0.076786 0.426375 -1.10504
2008-11-06 08:48:35 51°20.342 2°36.909 -999 0.070096 0.388102 -1.10504
2008-11-06 08:49:35 51°20.314 2°36.92 -999 0.073904 0.410084 -1.10504
2008-11-06 08:50:35 51°20.289 2°36.925 -999 0.066494 0.367779 -1.070216
2008-11-06 08:51:35 51°20.269 2°36.923 -999 0.057747 0.318126 -1.10504
2008-11-06 08:52:35 51°20.254 2°36.917 -999 0.06279 0.346859 -1.10504
2008-11-06 08:53:35 51°20.246 2°36.905 -999 0.063304 0.349915 -1.10504
2008-11-06 08:54:35 51°20.243 2°36.893 -999 0.068553 0.380108 -1.10504
2008-11-06 08:55:35 51°20.247 2°36.88 -999 0.065877 0.364825 -1.10504
2008-11-06 08:56:35 51°20.253 2°36.868 -999 0.056203 0.309869 -1.10504
2008-11-06 08:57:35 51°20.262 2°36.857 -999 0.064025 0.354487 -1.10504
2008-11-06 08:58:35 51°20.272 2°36.848 -999 0.067626 0.375244 -1.10504
2008-11-06 08:59:35 51°20.283 2°36.839 -999 0.058982 0.325957 -1.10504
2008-11-06 09:00:35 51°20.295 2°36.829 -999 0.068964 0.383109 -1.10504
2008-11-06 09:01:35 51°20.303 2°36.792 -999 0.067524 0.374878 -1.10504
2008-11-06 09:02:35 51°20.309 2°36.76 -999 0.068347 0.379957 -1.10504
2008-11-06 09:03:35 51°20.316 2°36.735 -999 0.176927 1.026454 -1.139864
2008-11-06 09:04:35 51°20.323 2°36.718 -999 0.064025 0.355396 -1.244337
2008-11-06 09:05:35 51°20.328 2°36.696 -999 0.060423 0.335135 -1.244337
2008-11-06 09:06:35 51°20.305 2°36.67 -999 0.054763 0.302882 -1.244337
2008-11-06 09:07:35 51°20.273 2°36.7 -999 0.055277 0.305884 -1.244337
2008-11-06 09:08:35 51°20.255 2°36.744 -999 0.050955 0.281507 -1.279161
2008-11-06 09:09:35 51°20.248 2°36.781 -999 0.051572 0.285083 -1.279161
2008-11-06 09:10:35 51°20.246 2°36.811 -999 0.053013 0.293335 -1.279161
2008-11-06 09:11:35 51°20.247 2°36.833 -999 0.052396 0.289927 -1.244337
2008-11-06 09:12:35 51°20.249 2°36.851 -999 0.051264 0.283607 -1.279161
2008-11-06 09:13:35 51°20.253 2°36.864 -999 0.053734 0.297746 -1.244337
2008-11-06 09:14:35 51°20.256 2°36.874 -999 0.052602 0.29141 -1.279161
2008-11-06 09:15:35 51°20.26 2°36.884 -999 0.04972 0.275147 -1.244337
2008-11-06 09:16:35 51°20.266 2°36.893 -999 0.053013 0.293937 -1.244337
2008-11-06 09:17:35 51°20.272 2°36.903 -999 0.05044 0.279407 -1.279161
2008-11-06 09:18:35 51°20.279 2°36.913 -999 0.049103 0.271889 -1.244337
2008-11-06 09:19:35 51°20.286 2°36.924 -999 0.050955 0.282508 -1.279161
2008-11-06 09:20:35 51°20.292 2°36.933 -999 0.05291 0.293758 -1.244337
2008-11-06 09:21:35 51°20.299 2°36.942 -999 0.057335 0.319139 -1.244337
2008-11-06 09:22:35 51°20.307 2°36.95 -999 0.056306 0.313394 -1.244337
2008-11-06 09:23:35 51°20.314 2°36.957 -999 0.05538 0.308149 -1.279161
2008-11-06 09:24:35 51°20.321 2°36.963 -999 0.054557 0.303632 -1.279161
2008-11-06 09:25:35 51°20.328 2°36.967 -999 0.053013 0.294856 -1.244337
2008-11-06 09:26:35 51°20.336 2°36.97 -999 0.061966 0.346467 -1.279161
2008-11-06 09:27:35 51°20.342 2°36.976 -999 0.053219 0.296252 -1.279161
2008-11-06 09:28:35 51°20.336 2°36.997 -999 0.05713 0.318826 -1.244337
2008-11-06 09:29:35 51°20.314 2°37.002 -999 0.055174 0.307824 -1.279161
2008-11-06 09:30:35 51°20.295 2°36.982 -999 0.058879 0.329195 -1.244337
2008-11-06 09:31:35 51°20.274 2°36.965 -999 0.062172 0.348333 -1.244337
2008-11-06 09:32:35 51°20.258 2°36.972 -999 0.058262 0.325865 -1.244337
2008-11-06 09:33:35 51°20.253 2°36.985 -999 0.063098 0.354018 -1.244337
2008-11-06 09:34:35 51°20.254 2°36.998 -999 0.276363 1.659784 -1.313985
2008-11-06 09:35:35 51°20.257 2°37.007 -999 0.414529 2.557968 -1.313985
2008-11-06 09:36:35 51°20.225 2°37.017 -999 0.117541 0.67829 -1.313985
2008-11-06 09:37:35 51°20.2 2°36.953 -999 0.208321 1.237524 -1.313985
2008-11-06 09:38:35 51°20.218 2°36.88 -999 0.364387 2.23605 -1.313985
2008-11-06 09:39:35 51°20.244 2°36.823 -999 0.164782 0.966514 -1.313985
2008-11-06 09:40:35 51°20.265 2°36.777 -999 0.123304 0.714573 -1.313985
2008-11-06 09:41:35 51°20.279 2°36.742 -999 0.094487 0.542727 -1.313985
2008-11-06 09:42:35 51°20.289 2°36.715 -999 0.089136 0.511045 -1.313985
2008-11-06 09:43:35 51°20.298 2°36.692 -999 0.092017 0.528308 -1.313985
2008-11-06 09:44:35 51°20.307 2°36.675 -999 0.098707 0.56846 -1.313985
2008-11-06 09:45:35 51°20.315 2°36.659 -999 0.091297 0.524048 -1.313985
2008-11-06 09:46:35 51°20.323 2°36.645 -999 0.094693 0.544744 -1.313985
2008-11-06 09:47:35 51°20.332 2°36.633 -999 0.125568 0.731402 -1.313985
2008-11-06 09:48:35 51°20.339 2°36.607 -999 0.121452 0.706329 -1.313985
2008-11-06 09:49:35 51°20.311 2°36.538 -999 0.089856 0.516103 -1.313985
2008-11-06 09:50:35 51°20.254 2°36.56 -999 0.080285 0.459354 -1.313985
2008-11-06 09:51:35 51°20.226 2°36.684 -999 0.07586 0.433256 -1.313985
2008-11-06 09:52:35 51°20.188 2°36.876 -999 0.072669 0.414679 -1.313985
2008-11-06 09:53:35 51°20.143 2°37.102 -999 0.075551 0.431777 -1.313985
2008-11-06 09:54:35 51°20.094 2°37.331 -999 0.076683 0.438655 -1.313985
2008-11-06 09:55:35 51°20.039 2°37.583 -999 0.072052 0.411332 -1.279161
2008-11-06 09:56:35 51°19.979 2°37.853 -999 0.076992 0.440759 -1.313985
2008-11-06 09:57:35 51°19.915 2°38.146 -999 0.065363 0.372137 -1.313985
2008-11-06 09:58:35 51°19.847 2°38.444 -999 0.083269 0.478351 -1.313985
2008-11-06 09:59:35 51°19.781 2°38.744 -999 0.079976 0.458891 -1.313985
2008-11-06 10:00:35 51°19.719 2°39.047 -999 0.076992 0.441264 -1.313985
2008-11-06 10:01:35 51°19.653 2°39.347 -999 0.089136 0.513862 -1.279161
2008-11-06 10:02:35 51°19.592 2°39.652 -999 0.064334 0.366662 -1.279161
2008-11-06 10:03:35 51°19.528 2°39.953 -999 0.083372 0.479778 -1.313985
2008-11-06 10:04:35 51°19.464 2°40.254 -999 0.10447 0.606903 -1.279161
2008-11-06 10:05:35 51°19.393 2°40.549 -999 0.065671 0.374955 -1.279161
2008-11-06 10:06:35 51°19.324 2°40.845 -999 0.076889 0.441575 -1.279161
2008-11-06 10:07:35 51°19.254 2°41.142 -999 0.080594 0.463808 -1.313985
2008-11-06 10:08:35 51°19.189 2°41.441 -999 0.071846 0.411791 -1.313985
2008-11-06 10:09:35 51°19.122 2°41.74 -999 0.327632 2.020859 -1.279161
2008-11-06 10:10:35 51°19.051 2°42.035 -999 0.066701 0.381609 -1.279161
2008-11-06 10:11:35 51°18.97 2°42.326 -999 0.08646 0.499657 -1.279161
2008-11-06 10:12:35 51°18.885 2°42.614 -999 0.063922 0.36545 -1.279161
2008-11-06 10:13:35 51°18.794 2°42.897 -999 0.075242 0.432799 -1.279161
2008-11-06 10:14:35 51°18.702 2°43.179 -999 0.071023 0.407752 -1.313985
2008-11-06 10:15:35 51°18.601 2°43.453 -999 0.070302 0.403572 -1.313985
2008-11-06 10:16:35 51°18.473 2°43.696 -999 0.067524 0.387296 -1.279161
2008-11-06 10:17:35 51°18.317 2°43.887 -999 0.072772 0.418416 -1.279161
2008-11-06 10:18:35 51°18.156 2°44.057 -999 0.072669 0.418199 -1.279161
2008-11-06 10:19:35 51°17.99 2°44.224 -999 0.059085 0.337812 -1.279161
2008-11-06 10:20:35 51°17.824 2°44.387 -999 0.067524 0.387852 -1.279161
2008-11-06 10:21:35 51°17.653 2°44.547 -999 0.068759 0.395325 -1.279161
2008-11-06 10:22:35 51°17.487 2°44.715 -999 0.069068 0.397214 -1.279161
2008-11-06 10:23:35 51°17.316 2°44.88 -999 0.06351 0.364334 -1.279161
2008-11-06 10:24:35 51°17.144 2°45.047 -999 0.065054 0.373641 -1.279161
2008-11-06 10:25:35 51°16.974 2°45.213 -999 0.068656 0.395109 -1.279161
2008-11-06 10:26:35 51°16.803 2°45.378 -999 0.065157 0.374422 -1.279161
2008-11-06 10:27:35 51°16.632 2°45.544 -999 0.057233 0.327572 -1.279161
2008-11-06 10:28:35 51°16.452 2°45.677 -999 0.062378 0.358104 -1.279161
2008-11-06 10:29:35 51°16.255 2°45.668 -999 0.071332 0.411484 -1.279161
2008-11-06 10:30:35 51°16.068 2°45.546 -999 0.074522 0.430699 -1.279161
2008-11-06 10:31:35 51°15.882 2°45.41 -999 0.061349 0.352253 -1.279161
2008-11-06 10:32:35 51°15.686 2°45.318 -999 0.061864 0.35537 -1.244337
2008-11-06 10:33:35 51°15.485 2°45.35 -999 0.061452 0.35299 -1.279161
2008-11-06 10:34:35 51°15.307 2°45.488 -999 0.063305 0.364071 -1.244337
2008-11-06 10:35:35 51°15.179 2°45.716 -999 0.063819 0.367121 -1.279161
2008-11-06 10:36:35 51°15.113 2°46.005 -999 0.066495 0.383241 -1.279161
2008-11-06 10:37:35 51°15.08 2°46.309 -999 0.068759 0.396782 -1.279161
2008-11-06 10:38:35 51°15.06 2°46.614 -999 0.066701 0.384628 -1.279161
2008-11-06 10:39:35 51°15.051 2°46.917 -999 0.072464 0.419172 -1.244337
2008-11-06 10:40:35 51°15.024 2°47.215 -999 0.065157 0.375623 -1.244337
2008-11-06 10:41:35 51°14.986 2°47.514 -999 0.066392 0.383101 -1.279161
2008-11-06 10:42:35 51°14.954 2°47.816 -999 0.066804 0.385616 -1.244337
2008-11-06 10:43:35 51°14.936 2°48.12 -999 0.056718 0.325782 -1.279161
2008-11-06 10:44:35 51°14.912 2°48.425 -999 0.063716 0.367421 -1.279161
2008-11-06 10:45:35 51°14.891 2°48.731 -999 0.065877 0.38043 -1.279161
2008-11-06 10:46:35 51°14.873 2°49.036 -999 0.063716 0.367638 -1.244337
2008-11-06 10:47:35 51°14.847 2°49.342 -999 0.063407 0.365902 -1.279161
2008-11-06 10:48:35 51°14.824 2°49.649 -999 0.063922 0.369061 -1.279161
2008-11-06 10:49:35 51°14.797 2°49.956 -999 0.060732 0.350144 -1.244337
2008-11-06 10:50:35 51°14.783 2°50.262 -999 0.064642 0.373552 -1.279161
2008-11-06 10:51:35 51°14.773 2°50.568 -999 0.061041 0.352182 -1.279161
2008-11-06 10:52:35 51°14.759 2°50.873 -999 0.056924 0.327788 -1.244337
2008-11-06 10:53:35 51°14.741 2°51.177 -999 0.061658 0.356036 -1.279161
2008-11-06 10:54:35 51°14.725 2°51.479 -999 0.061452 0.354877 -1.279161
2008-11-06 10:55:35 51°14.712 2°51.78 -999 0.059703 0.34458 -1.244337
2008-11-06 10:56:35 51°14.717 2°52.081 -999 0.068965 0.400066 -1.244337
2008-11-06 10:57:35 51°14.732 2°52.38 -999 0.060423 0.349037 -1.244337
2008-11-06 10:58:35 51°14.754 2°52.679 -999 0.057542 0.33197 -1.244337
2008-11-06 10:59:35 51°14.769 2°52.98 -999 0.083887 0.490513 -1.244337
2008-11-06 11:00:35 51°14.764 2°53.283 -999 0.060423 0.349303 -1.279161
2008-11-06 11:01:35 51°14.743 2°53.59 -999 0.064231 0.372179 -1.244337
2008-11-06 11:02:35 51°14.707 2°53.892 -999 0.05394 0.310885 -1.244337
2008-11-06 11:03:35 51°14.65 2°54.188 -999 0.05713 0.329936 -1.279161
2008-11-06 11:04:35 51°14.585 2°54.478 -999 0.056718 0.327586 -1.244337
2008-11-06 11:05:35 51°14.491 2°54.753 -999 0.058776 0.33994 -1.244337
2008-11-06 11:06:35 51°14.38 2°55.01 -999 0.05394 0.31124 -1.244337
2008-11-06 11:07:35 51°14.259 2°55.256 -999 0.052499 0.302756 -1.279161
2008-11-06 11:08:35 51°14.145 2°55.395 -999 0.067627 0.393304 -1.279161
2008-11-06 11:09:35 51°14.074 2°55.459 -999 0.069582 0.405194 -1.244337
2008-11-06 11:10:35 51°14.009 2°55.509 -999 0.072155 0.420831 -1.244337
2008-11-06 11:11:35 51°13.932 2°55.562 -999 0.069068 0.402295 -1.244337
2008-11-06 11:12:35 51°13.847 2°55.62 -999 0.069273 0.403629 -1.244337
2008-11-06 11:13:35 51°13.776 2°55.688 -999 0.068039 0.396276 -1.244337
2008-11-06 11:14:35 51°13.731 2°55.763 -999 0.068141 0.396958 -1.244337
2008-11-06 11:15:35 51°13.692 2°55.846 -999 0.068656 0.400137 -1.244337
2008-11-06 11:16:35 51°13.653 2°55.929 -999 0.069376 0.404545 -1.244337
2008-11-06 11:17:35 51°13.632 2°56.001 -999 0.069891 0.407723 -1.244337
2008-11-06 11:18:35 51°13.627 2°56.033 -999 0.072361 0.422727 -1.244337
2008-11-06 11:19:35 51°13.623 2°56.045 -999 0.070817 0.41347 -1.279161